Terminal Aerodrome Forecast
Issued by NWS Twin Cities, MN

Home | Current Version | Previous Version | Graphics & Text | Print | Product List | Glossary On
Versions: 1 2 3 4 5 6 7 8 9 10 11 12 13 14 15 16 17 18 19 20 21 22 23 24 25 26
259
FTUS43 KMPX 120305 CCA
TAFMSP
TAF COR
KMSP 120305Z 1203/1306 25007KT 5SM -SN OVC028
      TEMPO 1203/1204 3SM -SN OVC025
     FM120500 31008KT P6SM OVC025
     FM121000 32013KT P6SM SCT030
     FM121500 32016G23KT P6SM FEW040 SCT250=

USA.gov is the U.S. government's official web portal to all federal, state and local government web resources and services.